createdAt,value
2022-08-19T00:00:36.048Z,102126.41
2022-08-19T00:03:59.007Z,102129.31
2022-08-19T00:07:23.071Z,102111.66
2022-08-19T00:10:40.556Z,102120.84
2022-08-19T00:14:04.053Z,102110.25
2022-08-19T00:17:28.131Z,102107.84
2022-08-19T00:20:50.999Z,102110.28
2022-08-19T00:24:14.090Z,102083.97
2022-08-19T00:27:36.038Z,102105.56
2022-08-19T00:31:01.024Z,102096.06
2022-08-19T00:34:26.002Z,102089.84
2022-08-19T00:37:52.073Z,102094.22
2022-08-19T00:41:15.061Z,102082.34
2022-08-19T00:44:40.029Z,102077.97
2022-08-19T00:48:03.070Z,102071.13
2022-08-19T00:51:27.075Z,102053.63
2022-08-19T00:54:52.770Z,102060.81
2022-08-19T00:58:21.060Z,102053.97
2022-08-19T01:01:44.137Z,102050.41
2022-08-19T01:05:07.118Z,102045.66
2022-08-19T01:08:32.087Z,102034.97
2022-08-19T01:11:50.604Z,102038.59
2022-08-19T01:15:14.056Z,102027.72
2022-08-19T01:18:37.024Z,102036.25
2022-08-19T01:22:14.057Z,102001.09
2022-08-19T01:25:40.043Z,102026.75
2022-08-19T01:29:05.221Z,102017.56
2022-08-19T01:32:33.644Z,102013.28
2022-08-19T01:36:00.046Z,102007.53
2022-08-19T01:39:24.118Z,102005.19
2022-08-19T01:42:47.095Z,102013.97
2022-08-19T01:46:10.094Z,102005.00
2022-08-19T01:49:35.087Z,101989.53
2022-08-19T01:53:06.014Z,101987.13
2022-08-19T01:56:30.109Z,102000.47
2022-08-19T01:59:53.094Z,102003.22
2022-08-19T02:03:15.121Z,101983.81
2022-08-19T02:06:39.090Z,101983.03
2022-08-19T02:10:03.150Z,101970.00
2022-08-19T02:13:33.157Z,101961.31
2022-08-19T02:16:57.040Z,101964.25
2022-08-19T02:20:22.151Z,101972.72
2022-08-19T02:23:45.103Z,101964.50
2022-08-19T02:27:09.212Z,101973.19
2022-08-19T02:30:34.057Z,101971.84
2022-08-19T02:33:57.118Z,101978.13
2022-08-19T02:37:40.049Z,101964.69
2022-08-19T02:41:07.073Z,101962.81
2022-08-19T02:44:31.947Z,101973.16
2022-08-19T02:47:55.113Z,101962.13
2022-08-19T02:51:18.069Z,101953.97
2022-08-19T02:54:41.121Z,101968.06
2022-08-19T02:58:06.089Z,101950.94
2022-08-19T03:01:40.259Z,101949.00
2022-08-19T03:05:04.050Z,101965.88
2022-08-19T03:08:28.156Z,101955.50
2022-08-19T03:11:52.737Z,101931.25
2022-08-19T03:15:16.093Z,101944.09
2022-08-19T03:18:39.146Z,101957.41
2022-08-19T03:22:04.108Z,101960.13
2022-08-19T03:25:28.101Z,101957.09
2022-08-19T03:28:57.806Z,101955.50
2022-08-19T03:32:33.078Z,101964.75
2022-08-19T03:35:56.113Z,101954.06
2022-08-19T03:39:19.150Z,101946.69
2022-08-19T03:42:49.458Z,101944.50
2022-08-19T03:46:25.093Z,101944.19
2022-08-19T03:49:49.082Z,101956.47
2022-08-19T03:53:12.105Z,101962.16
2022-08-19T03:56:35.116Z,101960.78
2022-08-19T04:00:12.989Z,101969.78
2022-08-19T04:03:39.140Z,101970.34
2022-08-19T04:07:02.114Z,101958.91
2022-08-19T04:10:25.115Z,101964.91
2022-08-19T04:13:48.117Z,101962.66
2022-08-19T04:17:15.150Z,101962.94
2022-08-19T04:20:39.106Z,101959.53
2022-08-19T04:24:02.131Z,101967.16
2022-08-19T04:27:27.113Z,101968.22
2022-08-19T04:31:08.100Z,101969.81
2022-08-19T04:34:32.152Z,101979.88
2022-08-19T04:37:55.092Z,101977.59
2022-08-19T04:41:37.173Z,101978.91
2022-08-19T04:45:00.226Z,101983.03
2022-08-19T04:48:27.069Z,101980.63
2022-08-19T04:51:52.092Z,101985.13
2022-08-19T04:55:15.199Z,101992.22
2022-08-19T04:58:39.126Z,101996.09
2022-08-19T05:02:03.140Z,102005.19
2022-08-19T05:05:26.207Z,102017.38
2022-08-19T05:08:51.186Z,102007.50
2022-08-19T05:12:15.154Z,102006.63
2022-08-19T05:15:39.167Z,102012.94
2022-08-19T05:19:13.624Z,102027.06
2022-08-19T05:22:46.206Z,102024.28
2022-08-19T05:26:09.144Z,102029.63
2022-08-19T05:29:36.249Z,102041.59
2022-08-19T05:33:00.637Z,102045.53
2022-08-19T05:36:18.204Z,102038.19
2022-08-19T05:39:42.198Z,102053.38
2022-08-19T05:43:05.186Z,102052.78
2022-08-19T05:46:35.172Z,102065.91
2022-08-19T05:50:01.138Z,102060.63
2022-08-19T05:53:25.140Z,102063.13
2022-08-19T05:56:48.292Z,102069.13
2022-08-19T06:00:18.668Z,102068.03
2022-08-19T06:03:44.188Z,102071.53
2022-08-19T06:07:12.857Z,102073.66
2022-08-19T06:10:36.176Z,102067.16
2022-08-19T06:14:01.133Z,102064.75
2022-08-19T06:17:23.162Z,102075.97
2022-08-19T06:20:55.455Z,102077.78
2022-08-19T06:24:17.202Z,102070.03
2022-08-19T06:27:58.709Z,102063.28
2022-08-19T06:31:25.221Z,102059.97
2022-08-19T06:34:50.169Z,102062.06
2022-08-19T06:38:14.298Z,102061.72
2022-08-19T06:41:39.485Z,102049.84
2022-08-19T06:45:09.213Z,102069.03
2022-08-19T06:48:34.667Z,102070.22
2022-08-19T06:52:02.247Z,102061.78
2022-08-19T06:55:26.183Z,102056.94
2022-08-19T06:58:49.300Z,102046.06
2022-08-19T07:02:13.177Z,102040.69
2022-08-19T07:05:36.251Z,102031.22
2022-08-19T07:09:03.224Z,102027.81
2022-08-19T07:12:27.196Z,102020.09
2022-08-19T07:15:52.189Z,102002.78
2022-08-19T07:19:18.680Z,102007.75
2022-08-19T07:22:36.260Z,102002.22
2022-08-19T07:25:53.441Z,101997.50
2022-08-19T07:29:16.235Z,101998.81
2022-08-19T07:32:40.257Z,101994.06
2022-08-19T07:36:04.247Z,101993.47
2022-08-19T07:39:30.216Z,101990.75
2022-08-19T07:42:53.301Z,102001.38
2022-08-19T07:46:16.215Z,101989.69
2022-08-19T07:49:39.286Z,101997.34
2022-08-19T07:53:02.195Z,101982.34
2022-08-19T07:56:25.227Z,101991.91
2022-08-19T07:59:49.238Z,101992.47
2022-08-19T08:03:13.191Z,101969.91
2022-08-19T08:07:05.246Z,101954.06
2022-08-19T08:10:28.228Z,101960.34
2022-08-19T08:14:01.073Z,101967.25
2022-08-19T08:17:31.141Z,101967.78
2022-08-19T08:21:13.238Z,101963.75
2022-08-19T08:24:30.954Z,101962.25
2022-08-19T08:27:50.370Z,101962.16
2022-08-19T08:31:18.226Z,101966.22
2022-08-19T08:34:41.275Z,101975.84
2022-08-19T08:38:05.245Z,101976.28
2022-08-19T08:41:40.225Z,101973.56
2022-08-19T08:45:14.287Z,101969.75
2022-08-19T08:48:57.243Z,101960.78
2022-08-19T08:52:21.243Z,101964.41
2022-08-19T08:55:45.291Z,101964.56
2022-08-19T08:59:17.240Z,101954.34
2022-08-19T09:02:43.367Z,101954.34
2022-08-19T09:06:11.875Z,101944.78
2022-08-19T09:09:44.273Z,101932.03
2022-08-19T09:13:27.287Z,101926.91
2022-08-19T09:16:54.272Z,101935.75
2022-08-19T09:20:22.287Z,101927.34
2022-08-19T09:23:46.228Z,101925.69
2022-08-19T09:27:18.407Z,101926.16
2022-08-19T09:30:37.301Z,101937.25
2022-08-19T09:34:01.260Z,101939.66
2022-08-19T09:37:24.923Z,101934.53
2022-08-19T09:40:49.275Z,101933.66
2022-08-19T09:44:13.260Z,101920.94
2022-08-19T09:47:36.258Z,101917.91
2022-08-19T09:51:01.245Z,101927.38
2022-08-19T09:54:25.461Z,101925.97
2022-08-19T09:57:48.225Z,101911.41
2022-08-19T10:01:12.343Z,101906.47
2022-08-19T10:04:54.302Z,101898.56
2022-08-19T10:08:17.278Z,101886.97
2022-08-19T10:11:43.150Z,101895.69
2022-08-19T10:15:11.235Z,101884.47
2022-08-19T10:18:36.280Z,101902.09
2022-08-19T10:22:00.481Z,101880.38
2022-08-19T10:25:25.295Z,101891.31
2022-08-19T10:28:47.195Z,101887.19
2022-08-19T10:32:05.278Z,101876.84
2022-08-19T10:35:42.709Z,101875.59
2022-08-19T10:39:28.643Z,101882.75
2022-08-19T10:42:54.267Z,101887.13
2022-08-19T10:46:17.267Z,101870.31
2022-08-19T10:50:03.270Z,101852.03
2022-08-19T10:53:29.306Z,101844.56
2022-08-19T10:57:04.246Z,101847.91
2022-08-19T11:00:27.277Z,101866.13
2022-08-19T11:03:50.270Z,101846.84
2022-08-19T11:07:14.356Z,101869.50
2022-08-19T11:10:37.280Z,101861.59
2022-08-19T11:14:02.323Z,101865.84
2022-08-19T11:17:26.278Z,101875.59
2022-08-19T11:20:49.267Z,101871.31
2022-08-19T11:24:13.344Z,101853.44
2022-08-19T11:27:38.286Z,101849.81
2022-08-19T11:31:01.387Z,101833.94
2022-08-19T11:34:25.267Z,101837.63
2022-08-19T11:37:48.339Z,101829.72
2022-08-19T11:41:16.293Z,101825.06
2022-08-19T11:44:39.343Z,101815.81
2022-08-19T11:48:02.260Z,101809.59
2022-08-19T11:51:27.342Z,101803.97
2022-08-19T11:54:50.665Z,101785.38
2022-08-19T11:58:19.206Z,101783.72
2022-08-19T12:01:42.275Z,101772.72
2022-08-19T12:05:09.025Z,101762.75
2022-08-19T12:08:35.397Z,101752.13
2022-08-19T12:12:00.263Z,101758.72
2022-08-19T12:15:25.338Z,101775.03
2022-08-19T12:18:50.301Z,101764.16
2022-08-19T12:22:16.266Z,101761.81
2022-08-19T12:25:40.381Z,101769.31
2022-08-19T12:29:03.325Z,101782.72
2022-08-19T12:32:26.292Z,101802.47
2022-08-19T12:35:50.346Z,101797.53
2022-08-19T12:39:14.544Z,101790.19
2022-08-19T12:42:39.331Z,101777.19
2022-08-19T12:46:02.350Z,101755.72
2022-08-19T12:49:52.465Z,101757.34
2022-08-19T12:53:08.328Z,101762.34
2022-08-19T12:56:31.333Z,101744.88
2022-08-19T12:59:55.309Z,101736.09
2022-08-19T13:03:17.339Z,101731.88
2022-08-19T13:06:40.323Z,101720.09
2022-08-19T13:10:03.331Z,101719.03
2022-08-19T13:13:26.338Z,101729.72
2022-08-19T13:16:50.308Z,101705.81
2022-08-19T13:20:15.360Z,101700.34
2022-08-19T13:23:39.333Z,101702.47
2022-08-19T13:27:03.347Z,101685.06
2022-08-19T13:30:45.369Z,101675.88
2022-08-19T13:34:01.914Z,101679.03
2022-08-19T13:37:20.376Z,101676.63
2022-08-19T13:40:43.406Z,101681.25
2022-08-19T13:44:06.381Z,101674.22
2022-08-19T13:47:30.396Z,101665.00
2022-08-19T13:50:58.338Z,101645.94
2022-08-19T13:54:22.442Z,101639.09
2022-08-19T13:57:48.371Z,101642.06
2022-08-19T14:01:12.406Z,101635.06
2022-08-19T14:04:36.358Z,101637.72
2022-08-19T14:08:00.357Z,101654.00
2022-08-19T14:11:23.377Z,101643.38
2022-08-19T14:14:46.329Z,101643.38
2022-08-19T14:18:09.385Z,101650.41
2022-08-19T14:21:36.515Z,101638.66
2022-08-19T14:25:04.201Z,101632.47
2022-08-19T14:28:28.279Z,101627.91
2022-08-19T14:31:52.417Z,101614.22
2022-08-19T14:35:10.934Z,101620.50
2022-08-19T14:38:31.323Z,101616.47
2022-08-19T14:41:57.491Z,101610.28
2022-08-19T14:45:14.406Z,101603.53
2022-08-19T14:48:37.325Z,101595.47
2022-08-19T14:52:05.429Z,101600.28
2022-08-19T14:55:28.326Z,101604.63
2022-08-19T14:58:51.389Z,101603.31
2022-08-19T15:02:33.575Z,101600.09
2022-08-19T15:05:57.385Z,101601.16
2022-08-19T15:09:20.372Z,101596.44
2022-08-19T15:12:45.156Z,101590.91
2022-08-19T15:16:12.257Z,101569.56
2022-08-19T15:19:44.404Z,101570.25
2022-08-19T15:23:10.373Z,101562.63
2022-08-19T15:26:35.415Z,101549.75
2022-08-19T15:30:01.385Z,101557.38
2022-08-19T15:33:29.383Z,101535.91
2022-08-19T15:36:46.975Z,101527.91
2022-08-19T15:40:04.482Z,101516.41
2022-08-19T15:43:29.421Z,101522.47
2022-08-19T15:46:54.388Z,101513.75
2022-08-19T15:50:31.393Z,101503.41
2022-08-19T15:53:54.345Z,101495.84
2022-08-19T15:57:29.432Z,101489.88
2022-08-19T16:01:12.821Z,101480.34
2022-08-19T16:04:54.456Z,101488.00
2022-08-19T16:08:18.395Z,101482.88
2022-08-19T16:11:45.453Z,101484.75
2022-08-19T16:15:10.389Z,101482.34
2022-08-19T16:18:36.439Z,101474.50
2022-08-19T16:22:02.380Z,101470.09
2022-08-19T16:25:26.463Z,101464.66
2022-08-19T16:28:49.395Z,101470.31
2022-08-19T16:32:12.410Z,101442.63
2022-08-19T16:35:35.400Z,101469.25
2022-08-19T16:38:59.441Z,101461.31
2022-08-19T16:42:23.431Z,101456.19
2022-08-19T16:45:46.436Z,101461.94
2022-08-19T16:49:09.441Z,101468.09
2022-08-19T16:52:34.459Z,101474.31
2022-08-19T16:56:01.472Z,101486.81
2022-08-19T16:59:24.390Z,101478.09
2022-08-19T17:02:50.646Z,101472.91
2022-08-19T17:06:18.383Z,101468.38
2022-08-19T17:09:43.447Z,101489.13
2022-08-19T17:13:06.399Z,101487.34
2022-08-19T17:16:40.562Z,101466.13
2022-08-19T17:20:03.386Z,101458.22
2022-08-19T17:23:42.112Z,101467.97
2022-08-19T17:27:06.638Z,101456.88
2022-08-19T17:30:29.434Z,101447.28
2022-08-19T17:33:52.474Z,101438.25
2022-08-19T17:37:18.412Z,101432.31
2022-08-19T17:40:41.475Z,101437.50
2022-08-19T17:44:04.449Z,101444.50
2022-08-19T17:47:29.559Z,101426.34
2022-08-19T17:50:53.414Z,101430.09
2022-08-19T17:54:18.493Z,101416.59
2022-08-19T17:57:44.703Z,101419.59
2022-08-19T18:01:10.460Z,101432.06
2022-08-19T18:04:33.461Z,101447.34
2022-08-19T18:07:58.478Z,101438.09
2022-08-19T18:11:22.435Z,101438.25
2022-08-19T18:14:49.521Z,101434.72
2022-08-19T18:18:15.572Z,101441.47
2022-08-19T18:21:39.486Z,101447.03
2022-08-19T18:25:02.431Z,101449.75
2022-08-19T18:28:26.485Z,101449.44
2022-08-19T18:31:51.429Z,101451.19
2022-08-19T18:35:18.502Z,101445.53
2022-08-19T18:39:01.117Z,101456.56
2022-08-19T18:42:50.473Z,101464.16
2022-08-19T18:46:33.030Z,101461.63
2022-08-19T18:49:54.519Z,101466.06
2022-08-19T18:53:17.477Z,101465.47
2022-08-19T18:56:41.513Z,101469.75
2022-08-19T19:00:05.522Z,101475.69
2022-08-19T19:03:28.510Z,101473.22
2022-08-19T19:06:52.582Z,101488.94
2022-08-19T19:10:15.493Z,101498.16
2022-08-19T19:13:38.499Z,101493.34
2022-08-19T19:17:01.508Z,101485.97
2022-08-19T19:20:26.464Z,101487.53
2022-08-19T19:23:59.508Z,101492.03
2022-08-19T19:27:22.492Z,101501.66
2022-08-19T19:30:45.449Z,101513.34
2022-08-19T19:34:29.050Z,101508.16
2022-08-19T19:37:59.467Z,101518.84
2022-08-19T19:41:22.897Z,101525.06
2022-08-19T19:44:40.430Z,101521.03
2022-08-19T19:48:05.601Z,101535.75
2022-08-19T19:51:29.528Z,101534.44
2022-08-19T19:54:56.467Z,101545.09
2022-08-19T19:58:22.780Z,101547.56
2022-08-19T20:01:54.664Z,101545.09
2022-08-19T20:05:17.515Z,101541.06
2022-08-19T20:09:00.496Z,101550.03
2022-08-19T20:12:23.472Z,101551.97
2022-08-19T20:15:46.552Z,101556.25
2022-08-19T20:19:10.497Z,101562.38
2022-08-19T20:22:33.863Z,101567.47
2022-08-19T20:25:57.496Z,101564.81
2022-08-19T20:29:37.889Z,101569.25
2022-08-19T20:33:04.495Z,101564.97
2022-08-19T20:36:28.579Z,101574.06
2022-08-19T20:39:52.571Z,101570.16
2022-08-19T20:43:16.540Z,101574.63
2022-08-19T20:46:33.117Z,101571.22
2022-08-19T20:49:50.524Z,101572.94
2022-08-19T20:53:13.488Z,101568.06
2022-08-19T20:56:36.553Z,101559.09
2022-08-19T20:59:59.489Z,101557.63
2022-08-19T21:03:23.565Z,101567.56
2022-08-19T21:06:47.555Z,101583.38
2022-08-19T21:10:10.673Z,101586.94
2022-08-19T21:13:35.582Z,101592.66
2022-08-19T21:16:58.568Z,101581.38
2022-08-19T21:20:22.634Z,101584.84
2022-08-19T21:23:46.537Z,101589.25
2022-08-19T21:27:09.672Z,101591.41
2022-08-19T21:30:32.684Z,101585.28
2022-08-19T21:33:55.517Z,101586.59
2022-08-19T21:37:24.725Z,101582.78
2022-08-19T21:40:49.747Z,101579.91
2022-08-19T21:44:11.587Z,101579.75
2022-08-19T21:47:34.688Z,101579.22
2022-08-19T21:50:58.534Z,101585.78
2022-08-19T21:54:24.702Z,101588.88
2022-08-19T21:57:48.640Z,101585.38
2022-08-19T22:01:13.675Z,101596.47
2022-08-19T22:04:36.544Z,101592.72
2022-08-19T22:07:59.814Z,101576.16
2022-08-19T22:11:23.543Z,101575.72
2022-08-19T22:14:46.579Z,101585.34
2022-08-19T22:18:11.548Z,101579.41
2022-08-19T22:21:40.283Z,101587.50
2022-08-19T22:25:06.556Z,101573.72
2022-08-19T22:28:31.590Z,101559.34
2022-08-19T22:31:58.096Z,101570.47
2022-08-19T22:35:21.590Z,101569.34
2022-08-19T22:38:45.543Z,101573.94
2022-08-19T22:42:08.616Z,101572.16
2022-08-19T22:45:31.529Z,101566.69
2022-08-19T22:49:00.749Z,101557.97
2022-08-19T22:52:27.557Z,101554.25
2022-08-19T22:55:52.598Z,101553.03
2022-08-19T22:59:16.540Z,101540.69
2022-08-19T23:02:51.738Z,101550.78
2022-08-19T23:06:16.576Z,101552.19
2022-08-19T23:09:39.592Z,101554.31
2022-08-19T23:13:04.600Z,101555.19
2022-08-19T23:16:27.548Z,101551.91
2022-08-19T23:19:51.594Z,101544.34
2022-08-19T23:23:16.589Z,101537.53
2022-08-19T23:26:39.605Z,101538.59
2022-08-19T23:30:21.599Z,101528.63
2022-08-19T23:33:51.905Z,101538.38
2022-08-19T23:37:15.587Z,101522.66
2022-08-19T23:40:38.614Z,101521.94
2022-08-19T23:44:02.555Z,101518.06
2022-08-19T23:47:27.609Z,101513.47
2022-08-19T23:50:47.611Z,101506.97
2022-08-19T23:54:04.613Z,101494.41
2022-08-19T23:57:27.558Z,101498.25
